sensor_id;sensor_type;location;lat;lon;timestamp;P1;durP1;ratioP1;P2;durP2;ratioP2
21903;SDS011;11116;51.554;7.812;2022-12-18T00:01:26;54.93;;;27.93;;
21903;SDS011;11116;51.554;7.812;2022-12-18T00:03:54;52.33;;;29.20;;
21903;SDS011;11116;51.554;7.812;2022-12-18T00:06:24;53.90;;;30.50;;
21903;SDS011;11116;51.554;7.812;2022-12-18T00:08:52;48.80;;;26.67;;
21903;SDS011;11116;51.554;7.812;2022-12-18T00:11:20;41.33;;;25.23;;
21903;SDS011;11116;51.554;7.812;2022-12-18T00:13:48;47.80;;;25.88;;
21903;SDS011;11116;51.554;7.812;2022-12-18T00:16:15;47.95;;;24.58;;
21903;SDS011;11116;51.554;7.812;2022-12-18T00:18:45;46.57;;;25.87;;
21903;SDS011;11116;51.554;7.812;2022-12-18T00:21:12;46.10;;;26.45;;
21903;SDS011;11116;51.554;7.812;2022-12-18T00:23:42;54.75;;;29.90;;
21903;SDS011;11116;51.554;7.812;2022-12-18T00:26:11;40.92;;;24.17;;
21903;SDS011;11116;51.554;7.812;2022-12-18T00:28:42;42.43;;;22.90;;
21903;SDS011;11116;51.554;7.812;2022-12-18T00:31:09;35.63;;;20.77;;
21903;SDS011;11116;51.554;7.812;2022-12-18T00:33:37;44.53;;;25.23;;
21903;SDS011;11116;51.554;7.812;2022-12-18T00:36:05;46.05;;;23.20;;
21903;SDS011;11116;51.554;7.812;2022-12-18T00:38:33;49.42;;;24.65;;
21903;SDS011;11116;51.554;7.812;2022-12-18T00:41:02;37.47;;;22.60;;
21903;SDS011;11116;51.554;7.812;2022-12-18T00:43:29;43.28;;;23.20;;
21903;SDS011;11116;51.554;7.812;2022-12-18T00:45:55;44.45;;;24.40;;
21903;SDS011;11116;51.554;7.812;2022-12-18T00:48:21;46.72;;;25.25;;
21903;SDS011;11116;51.554;7.812;2022-12-18T00:50:49;49.87;;;25.37;;
21903;SDS011;11116;51.554;7.812;2022-12-18T00:53:16;45.85;;;26.77;;
21903;SDS011;11116;51.554;7.812;2022-12-18T00:55:43;48.85;;;26.05;;
21903;SDS011;11116;51.554;7.812;2022-12-18T00:58:13;35.25;;;19.60;;
21903;SDS011;11116;51.554;7.812;2022-12-18T01:00:41;42.97;;;23.70;;
21903;SDS011;11116;51.554;7.812;2022-12-18T01:03:10;49.90;;;26.97;;
21903;SDS011;11116;51.554;7.812;2022-12-18T01:05:40;43.47;;;25.50;;
21903;SDS011;11116;51.554;7.812;2022-12-18T01:08:07;44.10;;;23.50;;
21903;SDS011;11116;51.554;7.812;2022-12-18T01:10:34;47.33;;;25.00;;
21903;SDS011;11116;51.554;7.812;2022-12-18T01:13:00;42.33;;;22.48;;
21903;SDS011;11116;51.554;7.812;2022-12-18T01:15:28;39.88;;;21.95;;
21903;SDS011;11116;51.554;7.812;2022-12-18T01:17:55;51.97;;;26.90;;
21903;SDS011;11116;51.554;7.812;2022-12-18T01:20:25;41.45;;;20.63;;
21903;SDS011;11116;51.554;7.812;2022-12-18T01:22:52;45.70;;;21.00;;
21903;SDS011;11116;51.554;7.812;2022-12-18T01:25:18;34.38;;;20.98;;
21903;SDS011;11116;51.554;7.812;2022-12-18T01:27:45;49.95;;;24.88;;
21903;SDS011;11116;51.554;7.812;2022-12-18T01:30:12;50.37;;;25.23;;
21903;SDS011;11116;51.554;7.812;2022-12-18T01:32:40;45.78;;;23.35;;
21903;SDS011;11116;51.554;7.812;2022-12-18T01:35:07;43.47;;;23.50;;
21903;SDS011;11116;51.554;7.812;2022-12-18T01:37:34;46.20;;;23.50;;
21903;SDS011;11116;51.554;7.812;2022-12-18T01:40:01;52.70;;;22.73;;
21903;SDS011;11116;51.554;7.812;2022-12-18T01:42:28;34.13;;;19.40;;
21903;SDS011;11116;51.554;7.812;2022-12-18T01:45:03;43.13;;;21.40;;
21903;SDS011;11116;51.554;7.812;2022-12-18T01:47:33;45.13;;;20.85;;
21903;SDS011;11116;51.554;7.812;2022-12-18T01:50:05;42.88;;;21.55;;
21903;SDS011;11116;51.554;7.812;2022-12-18T01:52:35;41.07;;;23.27;;
21903;SDS011;11116;51.554;7.812;2022-12-18T01:55:05;42.78;;;22.92;;
21903;SDS011;11116;51.554;7.812;2022-12-18T01:57:33;40.20;;;22.00;;
21903;SDS011;11116;51.554;7.812;2022-12-18T02:00:03;42.00;;;22.13;;
21903;SDS011;11116;51.554;7.812;2022-12-18T02:02:41;46.42;;;24.80;;
21903;SDS011;11116;51.554;7.812;2022-12-18T02:05:10;44.70;;;22.13;;
21903;SDS011;11116;51.554;7.812;2022-12-18T02:07:42;40.40;;;22.98;;
21903;SDS011;11116;51.554;7.812;2022-12-18T02:10:19;37.40;;;19.60;;
21903;SDS011;11116;51.554;7.812;2022-12-18T02:12:53;42.67;;;23.20;;
21903;SDS011;11116;51.554;7.812;2022-12-18T02:15:26;42.37;;;22.90;;
21903;SDS011;11116;51.554;7.812;2022-12-18T02:18:03;38.90;;;20.20;;
21903;SDS011;11116;51.554;7.812;2022-12-18T02:20:37;37.13;;;20.73;;
21903;SDS011;11116;51.554;7.812;2022-12-18T02:23:12;28.50;;;17.47;;
21903;SDS011;11116;51.554;7.812;2022-12-18T02:26:04;44.08;;;24.10;;
21903;SDS011;11116;51.554;7.812;2022-12-18T02:28:37;42.70;;;20.80;;
21903;SDS011;11116;51.554;7.812;2022-12-18T02:31:10;31.13;;;16.50;;
21903;SDS011;11116;51.554;7.812;2022-12-18T02:33:41;40.50;;;21.88;;
21903;SDS011;11116;51.554;7.812;2022-12-18T02:36:12;37.03;;;20.93;;
21903;SDS011;11116;51.554;7.812;2022-12-18T02:38:42;41.23;;;21.00;;
21903;SDS011;11116;51.554;7.812;2022-12-18T02:41:15;32.35;;;18.77;;
21903;SDS011;11116;51.554;7.812;2022-12-18T02:43:46;40.38;;;22.80;;
21903;SDS011;11116;51.554;7.812;2022-12-18T02:46:25;37.37;;;22.60;;
21903;SDS011;11116;51.554;7.812;2022-12-18T02:49:02;38.77;;;19.60;;
21903;SDS011;11116;51.554;7.812;2022-12-18T02:51:38;47.27;;;22.33;;
21903;SDS011;11116;51.554;7.812;2022-12-18T02:54:16;46.57;;;22.60;;
21903;SDS011;11116;51.554;7.812;2022-12-18T02:56:55;44.37;;;21.63;;
21903;SDS011;11116;51.554;7.812;2022-12-18T02:59:24;37.63;;;21.75;;
21903;SDS011;11116;51.554;7.812;2022-12-18T03:01:58;31.10;;;19.50;;
21903;SDS011;11116;51.554;7.812;2022-12-18T03:04:32;38.77;;;18.03;;
21903;SDS011;11116;51.554;7.812;2022-12-18T03:07:05;41.03;;;22.67;;
21903;SDS011;11116;51.554;7.812;2022-12-18T03:09:41;44.03;;;21.67;;
21903;SDS011;11116;51.554;7.812;2022-12-18T03:12:15;39.30;;;20.23;;
21903;SDS011;11116;51.554;7.812;2022-12-18T03:14:52;29.77;;;14.70;;
21903;SDS011;11116;51.554;7.812;2022-12-18T03:17:23;34.93;;;18.97;;
21903;SDS011;11116;51.554;7.812;2022-12-18T03:19:53;33.47;;;21.40;;
21903;SDS011;11116;51.554;7.812;2022-12-18T03:22:24;36.90;;;18.85;;
21903;SDS011;11116;51.554;7.812;2022-12-18T03:24:56;44.47;;;22.97;;
21903;SDS011;11116;51.554;7.812;2022-12-18T03:27:26;12.30;;;9.52;;
21903;SDS011;11116;51.554;7.812;2022-12-18T03:29:57;33.90;;;20.10;;
21903;SDS011;11116;51.554;7.812;2022-12-18T03:32:35;35.83;;;18.23;;
21903;SDS011;11116;51.554;7.812;2022-12-18T03:35:07;37.47;;;18.63;;
21903;SDS011;11116;51.554;7.812;2022-12-18T03:37:37;39.60;;;20.13;;
21903;SDS011;11116;51.554;7.812;2022-12-18T03:40:04;35.75;;;18.65;;
21903;SDS011;11116;51.554;7.812;2022-12-18T03:42:36;31.73;;;17.10;;
21903;SDS011;11116;51.554;7.812;2022-12-18T03:45:11;36.17;;;19.17;;
21903;SDS011;11116;51.554;7.812;2022-12-18T03:47:47;32.60;;;17.27;;
21903;SDS011;11116;51.554;7.812;2022-12-18T03:50:27;35.77;;;19.27;;
21903;SDS011;11116;51.554;7.812;2022-12-18T03:53:02;41.70;;;18.63;;
21903;SDS011;11116;51.554;7.812;2022-12-18T03:55:35;37.03;;;20.37;;
21903;SDS011;11116;51.554;7.812;2022-12-18T03:58:06;36.67;;;19.07;;
21903;SDS011;11116;51.554;7.812;2022-12-18T04:00:46;36.00;;;19.50;;
21903;SDS011;11116;51.554;7.812;2022-12-18T04:03:16;35.55;;;19.23;;
21903;SDS011;11116;51.554;7.812;2022-12-18T04:05:46;19.00;;;9.87;;
21903;SDS011;11116;51.554;7.812;2022-12-18T04:08:17;27.07;;;16.00;;
21903;SDS011;11116;51.554;7.812;2022-12-18T04:10:53;28.87;;;15.43;;
21903;SDS011;11116;51.554;7.812;2022-12-18T04:13:27;16.77;;;9.67;;
21903;SDS011;11116;51.554;7.812;2022-12-18T04:15:57;36.85;;;16.10;;
21903;SDS011;11116;51.554;7.812;2022-12-18T04:18:24;29.87;;;15.80;;
21903;SDS011;11116;51.554;7.812;2022-12-18T04:20:51;29.40;;;17.40;;
21903;SDS011;11116;51.554;7.812;2022-12-18T04:23:18;28.67;;;16.75;;
21903;SDS011;11116;51.554;7.812;2022-12-18T04:25:46;28.67;;;16.83;;
21903;SDS011;11116;51.554;7.812;2022-12-18T04:28:18;26.75;;;16.42;;
21903;SDS011;11116;51.554;7.812;2022-12-18T04:30:49;28.83;;;16.30;;
21903;SDS011;11116;51.554;7.812;2022-12-18T04:33:16;26.63;;;15.00;;
21903;SDS011;11116;51.554;7.812;2022-12-18T04:35:44;22.98;;;14.35;;
21903;SDS011;11116;51.554;7.812;2022-12-18T04:38:11;20.10;;;12.20;;
21903;SDS011;11116;51.554;7.812;2022-12-18T04:40:39;31.83;;;16.20;;
21903;SDS011;11116;51.554;7.812;2022-12-18T04:43:12;27.10;;;14.70;;
21903;SDS011;11116;51.554;7.812;2022-12-18T04:45:39;26.63;;;14.18;;
21903;SDS011;11116;51.554;7.812;2022-12-18T04:48:07;34.00;;;17.05;;
21903;SDS011;11116;51.554;7.812;2022-12-18T04:50:34;33.75;;;17.25;;
21903;SDS011;11116;51.554;7.812;2022-12-18T04:53:01;32.30;;;16.50;;
21903;SDS011;11116;51.554;7.812;2022-12-18T04:55:28;24.90;;;16.63;;
21903;SDS011;11116;51.554;7.812;2022-12-18T04:57:55;31.38;;;17.73;;
21903;SDS011;11116;51.554;7.812;2022-12-18T05:00:22;13.43;;;9.18;;
21903;SDS011;11116;51.554;7.812;2022-12-18T05:02:49;9.45;;;5.85;;
21903;SDS011;11116;51.554;7.812;2022-12-18T05:05:17;20.10;;;10.83;;
21903;SDS011;11116;51.554;7.812;2022-12-18T05:07:44;26.40;;;13.77;;
21903;SDS011;11116;51.554;7.812;2022-12-18T05:10:11;23.10;;;12.43;;
21903;SDS011;11116;51.554;7.812;2022-12-18T05:12:37;18.90;;;10.38;;
21903;SDS011;11116;51.554;7.812;2022-12-18T05:15:23;19.27;;;10.15;;
21903;SDS011;11116;51.554;7.812;2022-12-18T05:17:50;12.70;;;7.57;;
21903;SDS011;11116;51.554;7.812;2022-12-18T05:20:19;12.82;;;6.63;;
21903;SDS011;11116;51.554;7.812;2022-12-18T05:22:45;14.05;;;8.18;;
21903;SDS011;11116;51.554;7.812;2022-12-18T05:25:12;11.02;;;6.68;;
21903;SDS011;11116;51.554;7.812;2022-12-18T05:27:39;10.18;;;6.70;;
21903;SDS011;11116;51.554;7.812;2022-12-18T05:30:06;15.85;;;8.73;;
21903;SDS011;11116;51.554;7.812;2022-12-18T05:32:34;18.90;;;9.82;;
21903;SDS011;11116;51.554;7.812;2022-12-18T05:35:01;19.48;;;9.18;;
21903;SDS011;11116;51.554;7.812;2022-12-18T05:37:29;11.68;;;7.47;;
21903;SDS011;11116;51.554;7.812;2022-12-18T05:39:55;14.50;;;7.68;;
21903;SDS011;11116;51.554;7.812;2022-12-18T05:42:22;10.00;;;5.15;;
21903;SDS011;11116;51.554;7.812;2022-12-18T05:44:49;5.50;;;4.25;;
21903;SDS011;11116;51.554;7.812;2022-12-18T05:47:16;8.85;;;4.93;;
21903;SDS011;11116;51.554;7.812;2022-12-18T05:49:43;9.52;;;5.57;;
21903;SDS011;11116;51.554;7.812;2022-12-18T05:52:09;6.90;;;4.55;;
21903;SDS011;11116;51.554;7.812;2022-12-18T05:54:37;5.55;;;3.42;;
21903;SDS011;11116;51.554;7.812;2022-12-18T05:57:04;5.82;;;4.00;;
21903;SDS011;11116;51.554;7.812;2022-12-18T05:59:31;5.45;;;3.55;;
21903;SDS011;11116;51.554;7.812;2022-12-18T06:01:58;5.88;;;3.40;;
21903;SDS011;11116;51.554;7.812;2022-12-18T06:04:26;7.10;;;4.03;;
21903;SDS011;11116;51.554;7.812;2022-12-18T06:06:53;5.28;;;3.50;;
21903;SDS011;11116;51.554;7.812;2022-12-18T06:09:19;6.38;;;3.10;;
21903;SDS011;11116;51.554;7.812;2022-12-18T06:11:47;5.93;;;4.15;;
21903;SDS011;11116;51.554;7.812;2022-12-18T06:14:14;5.47;;;3.38;;
21903;SDS011;11116;51.554;7.812;2022-12-18T06:16:42;8.73;;;3.58;;
21903;SDS011;11116;51.554;7.812;2022-12-18T06:19:12;5.93;;;3.70;;
21903;SDS011;11116;51.554;7.812;2022-12-18T06:21:43;8.85;;;4.45;;
21903;SDS011;11116;51.554;7.812;2022-12-18T06:24:09;6.45;;;4.25;;
21903;SDS011;11116;51.554;7.812;2022-12-18T06:26:36;5.97;;;3.95;;
21903;SDS011;11116;51.554;7.812;2022-12-18T06:29:05;7.28;;;4.32;;
21903;SDS011;11116;51.554;7.812;2022-12-18T06:31:32;5.10;;;3.60;;
21903;SDS011;11116;51.554;7.812;2022-12-18T06:33:59;8.18;;;4.93;;
21903;SDS011;11116;51.554;7.812;2022-12-18T06:36:28;9.55;;;5.38;;
21903;SDS011;11116;51.554;7.812;2022-12-18T06:38:55;7.45;;;5.00;;
21903;SDS011;11116;51.554;7.812;2022-12-18T06:41:22;14.35;;;6.63;;
21903;SDS011;11116;51.554;7.812;2022-12-18T06:43:49;8.13;;;5.38;;
21903;SDS011;11116;51.554;7.812;2022-12-18T06:46:17;7.45;;;4.90;;
21903;SDS011;11116;51.554;7.812;2022-12-18T06:48:46;12.27;;;5.65;;
21903;SDS011;11116;51.554;7.812;2022-12-18T06:51:15;7.95;;;5.88;;
21903;SDS011;11116;51.554;7.812;2022-12-18T06:53:42;6.97;;;4.32;;
21903;SDS011;11116;51.554;7.812;2022-12-18T06:56:09;8.70;;;4.30;;
21903;SDS011;11116;51.554;7.812;2022-12-18T06:58:36;6.93;;;4.65;;
21903;SDS011;11116;51.554;7.812;2022-12-18T07:01:04;7.43;;;4.60;;
21903;SDS011;11116;51.554;7.812;2022-12-18T07:03:34;9.32;;;4.93;;
21903;SDS011;11116;51.554;7.812;2022-12-18T07:06:01;12.90;;;6.40;;
21903;SDS011;11116;51.554;7.812;2022-12-18T07:08:29;12.10;;;5.38;;
21903;SDS011;11116;51.554;7.812;2022-12-18T07:10:56;9.85;;;5.60;;
21903;SDS011;11116;51.554;7.812;2022-12-18T07:13:23;10.93;;;5.78;;
21903;SDS011;11116;51.554;7.812;2022-12-18T07:15:49;8.43;;;4.30;;
21903;SDS011;11116;51.554;7.812;2022-12-18T07:18:16;6.32;;;4.25;;
21903;SDS011;11116;51.554;7.812;2022-12-18T07:20:45;6.32;;;4.03;;
21903;SDS011;11116;51.554;7.812;2022-12-18T07:23:11;7.50;;;4.13;;
21903;SDS011;11116;51.554;7.812;2022-12-18T07:25:38;6.75;;;4.43;;
21903;SDS011;11116;51.554;7.812;2022-12-18T07:28:05;5.10;;;3.97;;
21903;SDS011;11116;51.554;7.812;2022-12-18T07:30:32;8.15;;;3.75;;
21903;SDS011;11116;51.554;7.812;2022-12-18T07:32:59;7.25;;;4.63;;
21903;SDS011;11116;51.554;7.812;2022-12-18T07:35:26;8.32;;;4.63;;
21903;SDS011;11116;51.554;7.812;2022-12-18T07:37:54;9.85;;;4.38;;
21903;SDS011;11116;51.554;7.812;2022-12-18T07:40:21;7.15;;;4.03;;
21903;SDS011;11116;51.554;7.812;2022-12-18T07:42:47;7.18;;;4.38;;
21903;SDS011;11116;51.554;7.812;2022-12-18T07:45:14;7.80;;;3.60;;
21903;SDS011;11116;51.554;7.812;2022-12-18T07:47:41;7.63;;;4.15;;
21903;SDS011;11116;51.554;7.812;2022-12-18T07:50:08;8.43;;;4.63;;
21903;SDS011;11116;51.554;7.812;2022-12-18T07:52:35;6.95;;;4.80;;
21903;SDS011;11116;51.554;7.812;2022-12-18T07:55:04;11.48;;;5.30;;
21903;SDS011;11116;51.554;7.812;2022-12-18T07:57:31;8.68;;;5.13;;
21903;SDS011;11116;51.554;7.812;2022-12-18T07:59:58;11.18;;;5.45;;
21903;SDS011;11116;51.554;7.812;2022-12-18T08:02:24;8.43;;;6.00;;
21903;SDS011;11116;51.554;7.812;2022-12-18T08:04:51;12.95;;;6.60;;
21903;SDS011;11116;51.554;7.812;2022-12-18T08:07:19;9.10;;;6.45;;
21903;SDS011;11116;51.554;7.812;2022-12-18T08:09:45;7.95;;;4.68;;
21903;SDS011;11116;51.554;7.812;2022-12-18T08:12:13;10.23;;;5.57;;
21903;SDS011;11116;51.554;7.812;2022-12-18T08:14:40;9.00;;;5.53;;
21903;SDS011;11116;51.554;7.812;2022-12-18T08:17:07;10.07;;;6.72;;
21903;SDS011;11116;51.554;7.812;2022-12-18T08:19:34;9.57;;;5.50;;
21903;SDS011;11116;51.554;7.812;2022-12-18T08:22:00;9.55;;;6.15;;
21903;SDS011;11116;51.554;7.812;2022-12-18T08:24:27;10.07;;;5.88;;
21903;SDS011;11116;51.554;7.812;2022-12-18T08:26:54;12.13;;;6.85;;
21903;SDS011;11116;51.554;7.812;2022-12-18T08:29:23;10.45;;;6.25;;
21903;SDS011;11116;51.554;7.812;2022-12-18T08:31:50;6.97;;;4.40;;
21903;SDS011;11116;51.554;7.812;2022-12-18T08:34:17;13.18;;;7.47;;
21903;SDS011;11116;51.554;7.812;2022-12-18T08:36:43;12.20;;;6.68;;
21903;SDS011;11116;51.554;7.812;2022-12-18T08:39:10;15.52;;;7.28;;
21903;SDS011;11116;51.554;7.812;2022-12-18T08:41:37;12.55;;;6.88;;
21903;SDS011;11116;51.554;7.812;2022-12-18T08:44:04;11.18;;;7.15;;
21903;SDS011;11116;51.554;7.812;2022-12-18T08:46:49;11.27;;;7.45;;
21903;SDS011;11116;51.554;7.812;2022-12-18T08:49:16;14.65;;;7.35;;
21903;SDS011;11116;51.554;7.812;2022-12-18T08:51:43;11.00;;;7.60;;
21903;SDS011;11116;51.554;7.812;2022-12-18T08:54:10;15.60;;;7.82;;
21903;SDS011;11116;51.554;7.812;2022-12-18T08:56:38;12.27;;;7.88;;
21903;SDS011;11116;51.554;7.812;2022-12-18T08:59:04;15.50;;;8.63;;
21903;SDS011;11116;51.554;7.812;2022-12-18T09:01:31;13.25;;;8.38;;
21903;SDS011;11116;51.554;7.812;2022-12-18T09:03:59;17.23;;;10.23;;
21903;SDS011;11116;51.554;7.812;2022-12-18T09:06:26;16.30;;;9.18;;
21903;SDS011;11116;51.554;7.812;2022-12-18T09:08:53;18.27;;;10.05;;
21903;SDS011;11116;51.554;7.812;2022-12-18T09:11:20;14.43;;;9.00;;
21903;SDS011;11116;51.554;7.812;2022-12-18T09:13:48;15.73;;;8.55;;
21903;SDS011;11116;51.554;7.812;2022-12-18T09:16:16;15.13;;;8.50;;
21903;SDS011;11116;51.554;7.812;2022-12-18T09:18:43;18.13;;;8.75;;
21903;SDS011;11116;51.554;7.812;2022-12-18T09:21:12;14.70;;;8.80;;
21903;SDS011;11116;51.554;7.812;2022-12-18T09:23:41;14.75;;;8.98;;
21903;SDS011;11116;51.554;7.812;2022-12-18T09:26:08;13.88;;;8.68;;
21903;SDS011;11116;51.554;7.812;2022-12-18T09:28:35;11.57;;;8.07;;
21903;SDS011;11116;51.554;7.812;2022-12-18T09:31:04;15.68;;;8.27;;
21903;SDS011;11116;51.554;7.812;2022-12-18T09:33:33;11.10;;;7.28;;
21903;SDS011;11116;51.554;7.812;2022-12-18T09:36:01;11.93;;;8.40;;
21903;SDS011;11116;51.554;7.812;2022-12-18T09:38:30;12.45;;;7.47;;
21903;SDS011;11116;51.554;7.812;2022-12-18T09:40:58;12.25;;;7.85;;
21903;SDS011;11116;51.554;7.812;2022-12-18T09:43:28;12.10;;;8.38;;
21903;SDS011;11116;51.554;7.812;2022-12-18T09:46:01;14.35;;;8.70;;
21903;SDS011;11116;51.554;7.812;2022-12-18T09:48:32;18.00;;;9.20;;
21903;SDS011;11116;51.554;7.812;2022-12-18T09:51:04;12.25;;;7.80;;
21903;SDS011;11116;51.554;7.812;2022-12-18T09:53:38;16.08;;;9.02;;
21903;SDS011;11116;51.554;7.812;2022-12-18T09:56:10;16.90;;;9.88;;
21903;SDS011;11116;51.554;7.812;2022-12-18T09:58:43;18.30;;;11.30;;
21903;SDS011;11116;51.554;7.812;2022-12-18T10:01:15;14.68;;;10.02;;
21903;SDS011;11116;51.554;7.812;2022-12-18T10:03:46;17.65;;;10.80;;
21903;SDS011;11116;51.554;7.812;2022-12-18T10:06:15;14.68;;;9.88;;
21903;SDS011;11116;51.554;7.812;2022-12-18T10:08:49;15.88;;;11.07;;
21903;SDS011;11116;51.554;7.812;2022-12-18T10:11:27;18.65;;;10.95;;
21903;SDS011;11116;51.554;7.812;2022-12-18T10:14:01;17.88;;;9.43;;
21903;SDS011;11116;51.554;7.812;2022-12-18T10:16:35;14.85;;;8.57;;
21903;SDS011;11116;51.554;7.812;2022-12-18T10:19:16;12.27;;;7.70;;
21903;SDS011;11116;51.554;7.812;2022-12-18T10:21:51;15.30;;;9.00;;
21903;SDS011;11116;51.554;7.812;2022-12-18T10:24:29;16.20;;;9.43;;
21903;SDS011;11116;51.554;7.812;2022-12-18T10:27:09;15.05;;;8.02;;
21903;SDS011;11116;51.554;7.812;2022-12-18T10:29:40;16.58;;;9.38;;
21903;SDS011;11116;51.554;7.812;2022-12-18T10:32:08;10.98;;;7.97;;
21903;SDS011;11116;51.554;7.812;2022-12-18T10:34:41;13.73;;;9.05;;
21903;SDS011;11116;51.554;7.812;2022-12-18T10:37:11;16.33;;;9.50;;
21903;SDS011;11116;51.554;7.812;2022-12-18T10:39:44;15.32;;;9.50;;
21903;SDS011;11116;51.554;7.812;2022-12-18T10:42:11;16.63;;;8.88;;
21903;SDS011;11116;51.554;7.812;2022-12-18T10:44:43;11.57;;;8.18;;
21903;SDS011;11116;51.554;7.812;2022-12-18T10:47:12;15.20;;;7.60;;
21903;SDS011;11116;51.554;7.812;2022-12-18T10:49:42;13.20;;;7.50;;
21903;SDS011;11116;51.554;7.812;2022-12-18T10:52:15;11.32;;;8.55;;
21903;SDS011;11116;51.554;7.812;2022-12-18T10:54:49;11.32;;;7.25;;
21903;SDS011;11116;51.554;7.812;2022-12-18T10:57:29;11.27;;;8.05;;
21903;SDS011;11116;51.554;7.812;2022-12-18T10:59:59;12.40;;;6.82;;
21903;SDS011;11116;51.554;7.812;2022-12-18T11:02:33;15.73;;;9.55;;
21903;SDS011;11116;51.554;7.812;2022-12-18T11:05:01;14.00;;;10.55;;
21903;SDS011;11116;51.554;7.812;2022-12-18T11:07:46;14.02;;;8.95;;
21903;SDS011;11116;51.554;7.812;2022-12-18T11:10:17;12.05;;;7.63;;
21903;SDS011;11116;51.554;7.812;2022-12-18T11:12:45;12.45;;;7.45;;
21903;SDS011;11116;51.554;7.812;2022-12-18T11:15:15;15.13;;;9.38;;
21903;SDS011;11116;51.554;7.812;2022-12-18T11:17:46;13.25;;;7.97;;
21903;SDS011;11116;51.554;7.812;2022-12-18T11:20:24;8.63;;;6.85;;
21903;SDS011;11116;51.554;7.812;2022-12-18T11:22:58;14.38;;;9.20;;
21903;SDS011;11116;51.554;7.812;2022-12-18T11:25:28;12.13;;;8.45;;
21903;SDS011;11116;51.554;7.812;2022-12-18T11:27:56;12.13;;;7.45;;
21903;SDS011;11116;51.554;7.812;2022-12-18T11:30:26;10.68;;;7.63;;
21903;SDS011;11116;51.554;7.812;2022-12-18T11:32:57;15.68;;;8.40;;
21903;SDS011;11116;51.554;7.812;2022-12-18T11:35:34;11.63;;;8.90;;
21903;SDS011;11116;51.554;7.812;2022-12-18T11:38:10;12.13;;;9.05;;
21903;SDS011;11116;51.554;7.812;2022-12-18T11:40:47;13.10;;;8.88;;
21903;SDS011;11116;51.554;7.812;2022-12-18T11:43:21;12.68;;;8.15;;
21903;SDS011;11116;51.554;7.812;2022-12-18T11:45:54;14.02;;;8.65;;
21903;SDS011;11116;51.554;7.812;2022-12-18T11:48:26;14.00;;;8.65;;
21903;SDS011;11116;51.554;7.812;2022-12-18T11:50:56;14.98;;;9.50;;
21903;SDS011;11116;51.554;7.812;2022-12-18T11:53:26;14.52;;;8.57;;
21903;SDS011;11116;51.554;7.812;2022-12-18T11:56:01;16.10;;;8.07;;
21903;SDS011;11116;51.554;7.812;2022-12-18T11:58:40;15.32;;;7.72;;
21903;SDS011;11116;51.554;7.812;2022-12-18T12:01:21;18.95;;;7.90;;
21903;SDS011;11116;51.554;7.812;2022-12-18T12:04:13;12.35;;;8.30;;
21903;SDS011;11116;51.554;7.812;2022-12-18T12:06:50;13.25;;;7.60;;
21903;SDS011;11116;51.554;7.812;2022-12-18T12:09:27;15.90;;;8.18;;
21903;SDS011;11116;51.554;7.812;2022-12-18T12:12:10;11.40;;;6.63;;
21903;SDS011;11116;51.554;7.812;2022-12-18T12:14:50;12.48;;;7.47;;
21903;SDS011;11116;51.554;7.812;2022-12-18T12:17:27;11.30;;;7.45;;
21903;SDS011;11116;51.554;7.812;2022-12-18T12:20:05;10.18;;;7.38;;
21903;SDS011;11116;51.554;7.812;2022-12-18T12:22:43;11.52;;;7.88;;
21903;SDS011;11116;51.554;7.812;2022-12-18T12:25:19;11.93;;;8.25;;
21903;SDS011;11116;51.554;7.812;2022-12-18T12:27:58;13.43;;;7.72;;
21903;SDS011;11116;51.554;7.812;2022-12-18T12:30:41;9.18;;;6.82;;
21903;SDS011;11116;51.554;7.812;2022-12-18T12:33:23;14.38;;;7.70;;
21903;SDS011;11116;51.554;7.812;2022-12-18T12:36:01;9.88;;;6.85;;
21903;SDS011;11116;51.554;7.812;2022-12-18T12:38:35;9.18;;;6.97;;
21903;SDS011;11116;51.554;7.812;2022-12-18T12:41:09;12.50;;;7.97;;
21903;SDS011;11116;51.554;7.812;2022-12-18T12:44:01;10.48;;;6.68;;
21903;SDS011;11116;51.554;7.812;2022-12-18T12:46:30;9.38;;;6.05;;
21903;SDS011;11116;51.554;7.812;2022-12-18T12:49:01;16.65;;;7.47;;
21903;SDS011;11116;51.554;7.812;2022-12-18T12:51:32;11.40;;;7.22;;
21903;SDS011;11116;51.554;7.812;2022-12-18T12:54:01;11.68;;;7.80;;
21903;SDS011;11116;51.554;7.812;2022-12-18T12:56:35;10.07;;;7.07;;
21903;SDS011;11116;51.554;7.812;2022-12-18T12:59:09;10.32;;;7.03;;
21903;SDS011;11116;51.554;7.812;2022-12-18T13:01:47;14.70;;;8.40;;
21903;SDS011;11116;51.554;7.812;2022-12-18T13:04:21;14.68;;;8.40;;
21903;SDS011;11116;51.554;7.812;2022-12-18T13:06:54;16.05;;;8.90;;
21903;SDS011;11116;51.554;7.812;2022-12-18T13:09:29;13.52;;;8.95;;
21903;SDS011;11116;51.554;7.812;2022-12-18T13:12:00;15.68;;;9.48;;
21903;SDS011;11116;51.554;7.812;2022-12-18T13:14:47;16.30;;;9.27;;
21903;SDS011;11116;51.554;7.812;2022-12-18T13:17:15;12.25;;;9.00;;
21903;SDS011;11116;51.554;7.812;2022-12-18T13:20:07;16.10;;;9.25;;
21903;SDS011;11116;51.554;7.812;2022-12-18T13:22:38;15.30;;;9.68;;
21903;SDS011;11116;51.554;7.812;2022-12-18T13:25:27;15.88;;;10.07;;
21903;SDS011;11116;51.554;7.812;2022-12-18T13:27:57;14.90;;;9.82;;
21903;SDS011;11116;51.554;7.812;2022-12-18T13:30:48;20.60;;;10.57;;
21903;SDS011;11116;51.554;7.812;2022-12-18T13:36:15;13.25;;;8.90;;
21903;SDS011;11116;51.554;7.812;2022-12-18T13:39:08;13.38;;;8.98;;
21903;SDS011;11116;51.554;7.812;2022-12-18T13:41:37;14.32;;;9.23;;
21903;SDS011;11116;51.554;7.812;2022-12-18T13:44:10;14.32;;;9.25;;
21903;SDS011;11116;51.554;7.812;2022-12-18T13:46:43;15.82;;;9.20;;
21903;SDS011;11116;51.554;7.812;2022-12-18T13:49:18;14.32;;;9.15;;
21903;SDS011;11116;51.554;7.812;2022-12-18T13:51:50;13.52;;;9.00;;
21903;SDS011;11116;51.554;7.812;2022-12-18T13:54:19;14.38;;;8.93;;
21903;SDS011;11116;51.554;7.812;2022-12-18T13:56:59;12.98;;;8.50;;
21903;SDS011;11116;51.554;7.812;2022-12-18T13:59:26;17.20;;;10.77;;
21903;SDS011;11116;51.554;7.812;2022-12-18T14:02:04;18.33;;;9.80;;
21903;SDS011;11116;51.554;7.812;2022-12-18T14:04:36;19.73;;;11.77;;
21903;SDS011;11116;51.554;7.812;2022-12-18T14:07:04;41.22;;;26.55;;
21903;SDS011;11116;51.554;7.812;2022-12-18T14:09:34;44.97;;;27.38;;
21903;SDS011;11116;51.554;7.812;2022-12-18T14:12:04;57.78;;;34.40;;
21903;SDS011;11116;51.554;7.812;2022-12-18T14:14:50;23.88;;;14.82;;
21903;SDS011;11116;51.554;7.812;2022-12-18T14:17:20;14.45;;;10.05;;
21903;SDS011;11116;51.554;7.812;2022-12-18T14:19:47;16.77;;;10.27;;
21903;SDS011;11116;51.554;7.812;2022-12-18T14:22:17;22.10;;;14.57;;
21903;SDS011;11116;51.554;7.812;2022-12-18T14:24:45;23.75;;;15.48;;
21903;SDS011;11116;51.554;7.812;2022-12-18T14:27:21;47.72;;;28.75;;
21903;SDS011;11116;51.554;7.812;2022-12-18T14:29:49;66.72;;;39.38;;
21903;SDS011;11116;51.554;7.812;2022-12-18T14:32:17;17.42;;;11.73;;
21903;SDS011;11116;51.554;7.812;2022-12-18T14:34:47;14.10;;;9.98;;
21903;SDS011;11116;51.554;7.812;2022-12-18T14:37:16;16.02;;;10.90;;
21903;SDS011;11116;51.554;7.812;2022-12-18T14:39:53;20.08;;;9.25;;
21903;SDS011;11116;51.554;7.812;2022-12-18T14:42:21;15.30;;;10.25;;
21903;SDS011;11116;51.554;7.812;2022-12-18T14:47:55;22.30;;;9.05;;
21903;SDS011;11116;51.554;7.812;2022-12-18T14:50:23;20.63;;;12.38;;
21903;SDS011;11116;51.554;7.812;2022-12-18T14:52:50;13.70;;;7.68;;
21903;SDS011;11116;51.554;7.812;2022-12-18T14:55:17;15.55;;;7.75;;
21903;SDS011;11116;51.554;7.812;2022-12-18T14:57:46;12.27;;;8.18;;